createdAt,value
2023-02-04T00:01:04.205Z,14.16
2023-02-04T00:03:31.641Z,14.14
2023-02-04T00:05:58.643Z,14.09
2023-02-04T00:08:25.658Z,13.91
2023-02-04T00:10:52.532Z,14.11
2023-02-04T00:13:19.411Z,14.37
2023-02-04T00:15:46.872Z,14.21
2023-02-04T00:18:13.964Z,14.37
2023-02-04T00:20:40.994Z,14.12
2023-02-04T00:23:07.910Z,14.19
2023-02-04T00:25:34.827Z,14.07
2023-02-04T00:28:01.827Z,14.46
2023-02-04T00:30:29.074Z,13.34
2023-02-04T00:32:56.854Z,13.68
2023-02-04T00:35:24.384Z,14.23
2023-02-04T00:37:55.649Z,14.38
2023-02-04T00:40:26.038Z,14.31
2023-02-04T00:42:52.859Z,14.33
2023-02-04T00:45:19.987Z,14.14
2023-02-04T00:47:46.883Z,13.81
2023-02-04T00:50:13.916Z,14.13
2023-02-04T00:52:40.931Z,13.71
2023-02-04T00:55:10.520Z,13.92
2023-02-04T00:57:37.428Z,14.02
2023-02-04T01:00:05.802Z,13.63
2023-02-04T01:02:32.662Z,13.69
2023-02-04T01:04:59.995Z,13.94
2023-02-04T01:07:26.900Z,13.92
2023-02-04T01:09:54.050Z,14.06
2023-02-04T01:12:23.308Z,13.92
2023-02-04T01:14:53.309Z,14.05
2023-02-04T01:17:21.477Z,14.16
2023-02-04T01:19:48.350Z,14.27
2023-02-04T01:22:15.402Z,14.48
2023-02-04T01:24:42.270Z,14.54
2023-02-04T01:27:38.311Z,14.36
2023-02-04T01:30:06.276Z,14.55
2023-02-04T01:32:34.224Z,14.43
2023-02-04T01:35:01.705Z,14.55
2023-02-04T01:37:28.858Z,13.70
2023-02-04T01:39:55.606Z,13.90
2023-02-04T01:42:22.559Z,14.13
2023-02-04T01:44:49.645Z,13.66
2023-02-04T01:47:16.528Z,13.32
2023-02-04T01:49:43.364Z,12.85
2023-02-04T01:52:10.935Z,12.95
2023-02-04T01:54:38.220Z,13.17
2023-02-04T01:57:06.957Z,13.10
2023-02-04T01:59:34.028Z,13.23
2023-02-04T02:02:00.897Z,13.21
2023-02-04T02:04:33.078Z,13.09
2023-02-04T02:07:04.143Z,12.96
2023-02-04T02:09:31.799Z,13.18
2023-02-04T02:11:58.859Z,13.28
2023-02-04T02:14:26.293Z,13.46
2023-02-04T02:16:53.107Z,13.53
2023-02-04T02:19:36.574Z,13.42
2023-02-04T02:22:07.607Z,13.74
2023-02-04T02:24:35.718Z,13.55
2023-02-04T02:27:07.444Z,13.84
2023-02-04T02:29:34.844Z,13.72
2023-02-04T02:32:01.754Z,13.80
2023-02-04T02:34:30.640Z,13.92
2023-02-04T02:36:58.695Z,13.94
2023-02-04T02:39:26.363Z,13.93
2023-02-04T02:41:53.676Z,14.01
2023-02-04T02:44:20.639Z,14.12
2023-02-04T02:46:47.582Z,14.14
2023-02-04T02:49:16.530Z,14.07
2023-02-04T02:51:44.111Z,14.14
2023-02-04T02:54:26.929Z,14.19
2023-02-04T02:56:56.888Z,14.17
2023-02-04T02:59:25.062Z,14.15
2023-02-04T03:01:55.628Z,14.14
2023-02-04T03:04:22.933Z,14.21
2023-02-04T03:06:51.057Z,14.26
2023-02-04T03:09:18.983Z,14.23
2023-02-04T03:11:47.573Z,14.27
2023-02-04T03:14:14.805Z,14.23
2023-02-04T03:16:41.990Z,14.28
2023-02-04T03:19:09.122Z,14.21
2023-02-04T03:21:36.466Z,14.14
2023-02-04T03:24:04.661Z,13.94
2023-02-04T03:26:31.871Z,13.82
2023-02-04T03:28:59.221Z,14.01
2023-02-04T03:31:26.269Z,14.09
2023-02-04T03:33:53.720Z,14.13
2023-02-04T03:36:20.455Z,14.20
2023-02-04T03:38:47.264Z,14.31
2023-02-04T03:41:14.084Z,14.34
2023-02-04T03:43:40.991Z,14.30
2023-02-04T03:46:07.796Z,14.30
2023-02-04T03:48:34.747Z,14.28
2023-02-04T03:51:01.818Z,14.28
2023-02-04T03:53:28.709Z,14.28
2023-02-04T03:55:55.516Z,14.26
2023-02-04T03:58:22.496Z,14.29
2023-02-04T04:00:49.410Z,14.24
2023-02-04T04:03:16.350Z,14.26
2023-02-04T04:05:43.945Z,14.27
2023-02-04T04:08:11.024Z,14.29
2023-02-04T04:10:37.977Z,14.20
2023-02-04T04:13:04.745Z,14.24
2023-02-04T04:15:33.984Z,14.24
2023-02-04T04:18:00.754Z,14.22
2023-02-04T04:20:29.188Z,14.20
2023-02-04T04:22:56.144Z,14.18
2023-02-04T04:25:22.928Z,14.21
2023-02-04T04:27:49.828Z,14.29
2023-02-04T04:30:17.011Z,14.35
2023-02-04T04:32:43.846Z,14.27
2023-02-04T04:35:10.707Z,13.61
2023-02-04T04:37:37.548Z,13.81
2023-02-04T04:40:04.666Z,14.05
2023-02-04T04:42:31.558Z,13.89
2023-02-04T04:44:58.448Z,13.93
2023-02-04T04:47:25.349Z,13.06
2023-02-04T04:49:52.108Z,13.06
2023-02-04T04:52:18.977Z,12.85
2023-02-04T04:54:46.060Z,12.50
2023-02-04T04:57:12.896Z,12.51
2023-02-04T04:59:39.664Z,12.34
2023-02-04T05:02:06.599Z,12.99
2023-02-04T05:04:33.413Z,12.83
2023-02-04T05:07:00.226Z,12.80
2023-02-04T05:09:27.128Z,13.17
2023-02-04T05:11:54.166Z,13.24
2023-02-04T05:14:20.937Z,12.76
2023-02-04T05:16:47.823Z,12.73
2023-02-04T05:19:14.802Z,13.54
2023-02-04T05:21:41.852Z,13.71
2023-02-04T05:24:09.444Z,13.56
2023-02-04T05:26:36.292Z,13.56
2023-02-04T05:29:03.314Z,13.89
2023-02-04T05:31:30.756Z,13.98
2023-02-04T05:33:58.242Z,14.00
2023-02-04T05:36:25.109Z,14.02
2023-02-04T05:38:51.966Z,14.04
2023-02-04T05:41:18.771Z,13.78
2023-02-04T05:43:45.699Z,13.80
2023-02-04T05:46:12.607Z,14.07
2023-02-04T05:48:40.453Z,13.79
2023-02-04T05:51:07.453Z,13.91
2023-02-04T05:53:34.224Z,13.92
2023-02-04T05:56:01.160Z,14.08
2023-02-04T05:58:33.527Z,14.11
2023-02-04T06:01:04.345Z,14.17
2023-02-04T06:03:31.668Z,14.10
2023-02-04T06:05:59.264Z,13.76
2023-02-04T06:08:26.213Z,13.87
2023-02-04T06:10:52.930Z,13.98
2023-02-04T06:13:20.593Z,14.14
2023-02-04T06:15:47.372Z,13.18
2023-02-04T06:18:14.305Z,13.58
2023-02-04T06:20:41.275Z,13.86
2023-02-04T06:23:08.277Z,13.93
2023-02-04T06:25:35.386Z,13.23
2023-02-04T06:28:02.266Z,13.76
2023-02-04T06:30:29.070Z,13.66
2023-02-04T06:32:55.913Z,13.84
2023-02-04T06:35:22.706Z,14.03
2023-02-04T06:37:50.016Z,14.12
2023-02-04T06:40:16.991Z,14.16
2023-02-04T06:42:43.918Z,14.11
2023-02-04T06:45:10.718Z,14.23
2023-02-04T06:47:37.648Z,14.24
2023-02-04T06:50:04.604Z,14.22
2023-02-04T06:52:31.296Z,14.24
2023-02-04T06:54:58.098Z,14.24
2023-02-04T06:57:24.841Z,14.25
2023-02-04T06:59:52.118Z,14.26
2023-02-04T07:02:19.144Z,14.28
2023-02-04T07:04:47.653Z,14.25
2023-02-04T07:07:14.564Z,14.31
2023-02-04T07:09:42.637Z,14.24
2023-02-04T07:12:09.880Z,14.24
2023-02-04T07:14:36.754Z,14.09
2023-02-04T07:17:03.748Z,14.21
2023-02-04T07:19:30.635Z,14.14
2023-02-04T07:21:57.855Z,14.26
2023-02-04T07:24:25.250Z,14.20
2023-02-04T07:26:52.495Z,14.16
2023-02-04T07:29:25.232Z,14.17
2023-02-04T07:31:53.278Z,14.01
2023-02-04T07:34:21.109Z,14.20
2023-02-04T07:36:48.192Z,14.20
2023-02-04T07:39:15.833Z,14.10
2023-02-04T07:41:42.749Z,14.10
2023-02-04T07:44:11.908Z,14.09
2023-02-04T07:46:52.868Z,13.74
2023-02-04T07:52:23.247Z,13.89
2023-02-04T07:54:50.404Z,13.87
2023-02-04T07:57:22.114Z,13.96
2023-02-04T07:59:49.220Z,14.10
2023-02-04T08:02:16.124Z,14.14
2023-02-04T08:04:42.975Z,14.03
2023-02-04T08:07:09.950Z,14.11
2023-02-04T08:09:37.200Z,14.10
2023-02-04T08:12:04.585Z,14.09
2023-02-04T08:14:31.495Z,13.90
2023-02-04T08:16:58.382Z,13.72
2023-02-04T08:19:25.157Z,13.95
2023-02-04T08:21:51.946Z,13.93
2023-02-04T08:24:18.912Z,13.96
2023-02-04T08:26:45.813Z,14.01
2023-02-04T08:29:12.855Z,14.10
2023-02-04T08:31:40.627Z,14.00
2023-02-04T08:34:08.230Z,13.62
2023-02-04T08:36:39.445Z,13.73
2023-02-04T08:39:06.736Z,13.53
2023-02-04T08:41:33.728Z,13.38
2023-02-04T08:44:00.567Z,13.61
2023-02-04T08:46:27.575Z,13.39
2023-02-04T08:48:54.910Z,13.81
2023-02-04T08:51:21.695Z,13.84
2023-02-04T08:53:48.542Z,13.65
2023-02-04T08:56:20.563Z,13.92
2023-02-04T08:58:53.080Z,14.12
2023-02-04T09:01:20.420Z,14.05
2023-02-04T09:03:47.218Z,14.14
2023-02-04T09:06:14.675Z,14.14
2023-02-04T09:08:41.523Z,14.06
2023-02-04T09:11:10.775Z,13.79
2023-02-04T09:13:38.114Z,13.71
2023-02-04T09:16:05.391Z,14.16
2023-02-04T09:18:32.821Z,14.26
2023-02-04T09:20:59.823Z,14.34
2023-02-04T09:23:26.813Z,14.33
2023-02-04T09:25:54.676Z,14.50
2023-02-04T09:28:21.598Z,14.50
2023-02-04T09:30:48.604Z,14.58
2023-02-04T09:33:17.163Z,14.55
2023-02-04T09:35:44.718Z,14.57
2023-02-04T09:38:11.576Z,14.57
2023-02-04T09:40:43.321Z,14.48
2023-02-04T09:43:15.293Z,14.51
2023-02-04T09:45:42.220Z,14.50
2023-02-04T09:48:12.345Z,14.55
2023-02-04T09:50:39.283Z,14.68
2023-02-04T09:53:06.986Z,14.66
2023-02-04T09:55:36.346Z,14.77
2023-02-04T09:58:04.825Z,14.77
2023-02-04T10:00:32.183Z,14.56
2023-02-04T10:03:01.156Z,14.63
2023-02-04T10:05:32.964Z,14.60
2023-02-04T10:08:00.511Z,14.66
2023-02-04T10:10:27.965Z,14.74
2023-02-04T10:12:57.550Z,14.79
2023-02-04T10:15:24.362Z,14.67
2023-02-04T10:18:20.534Z,14.83
2023-02-04T10:20:47.357Z,14.84
2023-02-04T10:23:14.209Z,14.83
2023-02-04T10:25:41.026Z,14.82
2023-02-04T10:28:07.849Z,14.73
2023-02-04T10:30:43.802Z,14.82
2023-02-04T10:33:24.861Z,14.78
2023-02-04T10:35:53.408Z,14.84
2023-02-04T10:38:20.360Z,14.80
2023-02-04T10:40:47.806Z,14.88
2023-02-04T10:43:21.754Z,14.74
2023-02-04T10:45:57.046Z,14.88
2023-02-04T10:48:23.990Z,14.94
2023-02-04T10:50:51.170Z,15.00
2023-02-04T10:53:41.784Z,14.32
2023-02-04T10:56:20.904Z,14.27
2023-02-04T10:58:48.766Z,13.79
2023-02-04T11:01:16.974Z,13.96
2023-02-04T11:03:47.080Z,13.98
2023-02-04T11:06:23.535Z,14.34
2023-02-04T11:08:53.445Z,14.30
2023-02-04T11:11:24.488Z,14.51
2023-02-04T11:13:51.496Z,14.58
2023-02-04T11:16:18.364Z,14.59
2023-02-04T11:18:50.919Z,14.52
2023-02-04T11:21:43.988Z,14.52
2023-02-04T11:24:19.163Z,14.44
2023-02-04T11:27:05.397Z,14.61
2023-02-04T11:29:38.955Z,14.31
2023-02-04T11:32:13.382Z,14.65
2023-02-04T11:34:55.941Z,14.72
2023-02-04T11:37:35.546Z,14.58
2023-02-04T11:40:14.583Z,14.47
2023-02-04T11:42:44.568Z,14.76
2023-02-04T11:45:21.772Z,14.52
2023-02-04T11:47:49.056Z,14.77
2023-02-04T11:50:29.298Z,14.84
2023-02-04T11:52:57.434Z,14.68
2023-02-04T11:55:25.880Z,14.58
2023-02-04T11:57:54.503Z,14.46
2023-02-04T12:00:34.446Z,14.23
2023-02-04T12:03:06.345Z,13.83
2023-02-04T12:05:44.918Z,14.34
2023-02-04T12:08:14.092Z,14.60
2023-02-04T12:10:48.931Z,14.65
2023-02-04T12:13:23.781Z,14.49
2023-02-04T12:16:05.800Z,14.21
2023-02-04T12:18:34.449Z,14.14
2023-02-04T12:21:02.676Z,13.94
2023-02-04T12:23:30.779Z,14.04
2023-02-04T12:25:58.002Z,14.37
2023-02-04T12:28:30.566Z,14.73
2023-02-04T12:30:57.624Z,14.81
2023-02-04T12:33:35.906Z,14.66
2023-02-04T12:36:03.462Z,14.12
2023-02-04T12:38:30.378Z,14.49
2023-02-04T12:40:57.384Z,14.78
2023-02-04T12:43:28.450Z,14.83
2023-02-04T12:49:32.720Z,14.14
2023-02-04T12:52:05.657Z,14.38
2023-02-04T12:54:37.055Z,14.73
2023-02-04T12:57:08.345Z,14.81
2023-02-04T12:59:37.029Z,14.88
2023-02-04T13:02:04.073Z,14.91
2023-02-04T13:04:31.338Z,14.76
2023-02-04T13:07:03.804Z,14.98
2023-02-04T13:09:39.412Z,15.14
2023-02-04T13:12:09.893Z,14.90
2023-02-04T13:14:37.325Z,14.32
2023-02-04T13:17:04.133Z,14.77
2023-02-04T13:19:32.560Z,14.77
2023-02-04T13:22:00.013Z,14.98
2023-02-04T13:24:27.230Z,15.01
2023-02-04T13:26:54.354Z,14.83
2023-02-04T13:29:24.508Z,14.99
2023-02-04T13:31:52.196Z,15.20
2023-02-04T13:34:19.771Z,15.01
2023-02-04T13:36:46.828Z,15.07
2023-02-04T13:39:13.759Z,14.40
2023-02-04T13:41:41.435Z,15.11
2023-02-04T13:44:08.417Z,15.11
2023-02-04T13:46:35.166Z,15.22
2023-02-04T13:49:02.050Z,15.19
2023-02-04T13:51:31.285Z,15.16
2023-02-04T13:53:59.626Z,14.94
2023-02-04T13:56:27.579Z,14.99
2023-02-04T13:58:59.484Z,15.14
2023-02-04T14:01:28.783Z,14.94
2023-02-04T14:03:58.174Z,15.26
2023-02-04T14:06:33.531Z,15.30
2023-02-04T14:09:04.894Z,14.89
2023-02-04T14:11:55.816Z,14.57
2023-02-04T14:14:23.354Z,14.73
2023-02-04T14:16:50.536Z,15.23
2023-02-04T14:19:17.530Z,15.41
2023-02-04T14:21:47.499Z,15.10
2023-02-04T14:24:14.436Z,15.31
2023-02-04T14:26:41.173Z,15.30
2023-02-04T14:29:08.094Z,14.99
2023-02-04T14:31:36.671Z,14.94
2023-02-04T14:34:03.644Z,14.79
2023-02-04T14:36:30.491Z,15.24
2023-02-04T14:38:57.349Z,15.23
2023-02-04T14:41:26.417Z,15.25
2023-02-04T14:43:53.819Z,15.15
2023-02-04T14:46:21.340Z,14.93
2023-02-04T14:48:48.417Z,15.03
2023-02-04T14:51:15.269Z,15.22
2023-02-04T14:53:46.071Z,15.41
2023-02-04T14:56:15.021Z,15.18
2023-02-04T14:58:42.220Z,15.48
2023-02-04T15:01:09.179Z,15.51
2023-02-04T15:03:36.124Z,15.57
2023-02-04T15:06:03.117Z,15.60
2023-02-04T15:08:29.920Z,15.68
2023-02-04T15:10:57.083Z,15.68
2023-02-04T15:13:23.956Z,15.69
2023-02-04T15:15:50.896Z,15.66
2023-02-04T15:18:17.802Z,15.69
2023-02-04T15:20:44.670Z,15.54
2023-02-04T15:23:13.246Z,15.36
2023-02-04T15:25:40.376Z,15.33
2023-02-04T15:28:07.510Z,15.49
2023-02-04T15:30:34.981Z,15.47
2023-02-04T15:33:02.052Z,15.51
2023-02-04T15:35:29.058Z,15.49
2023-02-04T15:37:55.855Z,15.57
2023-02-04T15:40:22.801Z,15.56
2023-02-04T15:42:50.955Z,15.57
2023-02-04T15:45:17.985Z,15.54
2023-02-04T15:47:44.834Z,15.56
2023-02-04T15:50:14.996Z,15.56
2023-02-04T15:52:41.982Z,15.59
2023-02-04T15:55:09.103Z,15.65
2023-02-04T15:57:37.454Z,15.61
2023-02-04T16:00:05.781Z,15.30
2023-02-04T16:02:32.670Z,14.79
2023-02-04T16:04:59.619Z,15.21
2023-02-04T16:07:26.714Z,15.40
2023-02-04T16:09:53.604Z,15.51
2023-02-04T16:12:20.544Z,15.52
2023-02-04T16:14:47.441Z,15.42
2023-02-04T16:17:14.411Z,15.44
2023-02-04T16:19:41.512Z,15.39
2023-02-04T16:22:08.464Z,15.51
2023-02-04T16:24:35.267Z,15.49
2023-02-04T16:27:02.156Z,15.51
2023-02-04T16:29:29.072Z,15.49
2023-02-04T16:31:58.000Z,15.52
2023-02-04T16:34:25.838Z,15.53
2023-02-04T16:36:52.858Z,15.48
2023-02-04T16:39:20.166Z,15.47
2023-02-04T16:41:47.144Z,15.45
2023-02-04T16:44:13.880Z,15.43
2023-02-04T16:46:41.023Z,15.35
2023-02-04T16:49:08.027Z,15.36
2023-02-04T16:51:35.105Z,15.41
2023-02-04T16:54:01.964Z,15.39
2023-02-04T16:56:39.876Z,15.29
2023-02-04T16:59:06.849Z,15.39
2023-02-04T17:01:33.776Z,15.39
2023-02-04T17:04:00.916Z,15.34
2023-02-04T17:06:29.031Z,15.14
2023-02-04T17:08:55.913Z,15.22
2023-02-04T17:11:29.825Z,15.33
2023-02-04T17:13:57.660Z,15.38
2023-02-04T17:16:25.105Z,15.28
2023-02-04T17:18:52.145Z,15.28
2023-02-04T17:21:18.857Z,15.29
2023-02-04T17:23:45.655Z,15.35
2023-02-04T17:26:13.219Z,15.31
2023-02-04T17:28:40.521Z,15.30
2023-02-04T17:31:07.612Z,15.22
2023-02-04T17:33:34.770Z,14.82
2023-02-04T17:36:02.417Z,15.06
2023-02-04T17:38:29.576Z,15.04
2023-02-04T17:40:56.333Z,15.11
2023-02-04T17:43:24.666Z,15.11
2023-02-04T17:45:51.474Z,15.19
2023-02-04T17:48:18.942Z,15.22
2023-02-04T17:50:45.713Z,15.14
2023-02-04T17:53:12.529Z,14.94
2023-02-04T17:55:42.039Z,15.13
2023-02-04T17:58:11.935Z,15.16
2023-02-04T18:00:39.869Z,15.07
2023-02-04T18:03:11.770Z,15.15
2023-02-04T18:05:42.653Z,15.15
2023-02-04T18:08:21.261Z,15.20
2023-02-04T18:10:53.194Z,15.16
2023-02-04T18:13:24.166Z,15.13
2023-02-04T18:15:58.181Z,15.03
2023-02-04T18:18:32.554Z,14.97
2023-02-04T18:21:02.838Z,14.91
2023-02-04T18:23:32.081Z,14.73
2023-02-04T18:26:12.415Z,14.93
2023-02-04T18:28:46.354Z,14.97
2023-02-04T18:31:52.694Z,15.01
2023-02-04T18:34:27.632Z,14.88
2023-02-04T18:36:55.537Z,15.01
2023-02-04T18:39:28.140Z,14.78
2023-02-04T18:41:55.405Z,14.49
2023-02-04T18:44:30.659Z,14.51
2023-02-04T18:46:57.904Z,14.56
2023-02-04T18:49:30.579Z,14.34
2023-02-04T18:51:59.009Z,14.47
2023-02-04T18:54:38.901Z,14.63
2023-02-04T18:57:18.401Z,14.49
2023-02-04T18:59:46.213Z,14.25
2023-02-04T19:02:41.564Z,14.44
2023-02-04T19:05:28.786Z,14.27
2023-02-04T19:08:14.743Z,14.27
2023-02-04T19:10:42.470Z,13.48
2023-02-04T19:13:22.654Z,14.11
2023-02-04T19:16:16.132Z,14.06
2023-02-04T19:18:43.206Z,14.35
2023-02-04T19:21:17.924Z,14.51
2023-02-04T19:23:45.048Z,14.61
2023-02-04T19:26:31.367Z,14.73
2023-02-04T19:28:58.331Z,14.68
2023-02-04T19:31:34.487Z,14.16
2023-02-04T19:34:17.703Z,13.92
2023-02-04T19:36:44.831Z,14.33
2023-02-04T19:39:21.804Z,14.59
2023-02-04T19:41:50.233Z,14.60
2023-02-04T19:44:46.325Z,14.66
2023-02-04T19:47:35.459Z,14.52
2023-02-04T19:50:14.265Z,14.45
2023-02-04T19:52:49.484Z,14.13
2023-02-04T19:55:34.942Z,14.03
2023-02-04T19:58:21.060Z,13.95
2023-02-04T20:01:02.366Z,13.86
2023-02-04T20:03:37.065Z,14.32
2023-02-04T20:06:30.852Z,14.46
2023-02-04T20:09:26.660Z,14.27
2023-02-04T20:11:58.251Z,14.57
2023-02-04T20:14:36.742Z,14.46
2023-02-04T20:17:17.047Z,14.13
2023-02-04T20:19:44.343Z,14.47
2023-02-04T20:22:17.512Z,14.45
2023-02-04T20:24:59.331Z,14.43
2023-02-04T20:27:37.797Z,14.53
2023-02-04T20:30:08.077Z,14.40
2023-02-04T20:32:49.957Z,14.41
2023-02-04T20:35:16.718Z,14.21
2023-02-04T20:37:44.182Z,14.12
2023-02-04T20:40:20.110Z,14.36
2023-02-04T20:42:54.937Z,14.45
2023-02-04T20:45:26.596Z,14.32
2023-02-04T20:47:57.461Z,13.75
2023-02-04T20:50:52.213Z,14.11
2023-02-04T20:53:36.693Z,14.44
2023-02-04T20:56:16.412Z,14.38
2023-02-04T20:58:44.532Z,14.41
2023-02-04T21:01:23.213Z,14.26
2023-02-04T21:03:51.320Z,14.19
2023-02-04T21:06:29.824Z,14.20
2023-02-04T21:09:03.145Z,14.26
2023-02-04T21:11:29.947Z,14.39
2023-02-04T21:13:56.790Z,14.49
2023-02-04T21:16:23.599Z,14.41
2023-02-04T21:18:50.862Z,14.25
2023-02-04T21:21:18.298Z,14.15
2023-02-04T21:23:45.088Z,14.31
2023-02-04T21:26:12.925Z,13.63
2023-02-04T21:28:39.790Z,14.03
2023-02-04T21:31:06.880Z,13.96
2023-02-04T21:33:33.713Z,13.66
2023-02-04T21:36:00.937Z,13.88
2023-02-04T21:38:27.796Z,13.79
2023-02-04T21:40:54.620Z,13.92
2023-02-04T21:43:21.770Z,13.59
2023-02-04T21:45:48.698Z,13.66
2023-02-04T21:48:15.585Z,13.60
2023-02-04T21:50:42.457Z,13.27
2023-02-04T21:53:09.405Z,13.62
2023-02-04T21:55:36.802Z,13.59
2023-02-04T21:58:04.557Z,13.78
2023-02-04T22:00:31.505Z,13.25
2023-02-04T22:02:58.477Z,13.69
2023-02-04T22:05:25.583Z,13.58
2023-02-04T22:07:53.194Z,13.80
2023-02-04T22:10:22.809Z,13.56
2023-02-04T22:12:49.865Z,13.70
2023-02-04T22:15:17.161Z,13.76
2023-02-04T22:17:44.854Z,13.74
2023-02-04T22:20:12.641Z,13.52
2023-02-04T22:22:39.570Z,13.26
2023-02-04T22:25:06.820Z,13.23
2023-02-04T22:27:33.515Z,13.18
2023-02-04T22:30:03.320Z,12.98
2023-02-04T22:32:30.504Z,13.45
2023-02-04T22:34:57.394Z,13.41
2023-02-04T22:37:24.785Z,13.24
2023-02-04T22:39:51.762Z,13.48
2023-02-04T22:42:18.427Z,13.16
2023-02-04T22:44:45.331Z,13.29
2023-02-04T22:47:13.124Z,13.20
2023-02-04T22:49:40.026Z,13.35
2023-02-04T22:52:06.902Z,13.45
2023-02-04T22:54:33.948Z,13.38
2023-02-04T22:57:00.998Z,13.26
2023-02-04T22:59:29.181Z,13.35
2023-02-04T23:01:56.570Z,13.67
2023-02-04T23:04:23.610Z,13.62
2023-02-04T23:06:51.326Z,13.33
2023-02-04T23:09:18.258Z,13.36
2023-02-04T23:11:50.287Z,13.60
2023-02-04T23:14:18.008Z,13.76
2023-02-04T23:16:47.432Z,12.84
2023-02-04T23:19:14.841Z,13.31
2023-02-04T23:21:41.790Z,13.28
2023-02-04T23:24:08.834Z,13.42
2023-02-04T23:26:36.000Z,13.08
2023-02-04T23:29:03.160Z,13.01
2023-02-04T23:31:29.926Z,13.28
2023-02-04T23:33:56.718Z,12.98
2023-02-04T23:36:23.557Z,13.12
2023-02-04T23:38:50.397Z,13.40
2023-02-04T23:41:17.388Z,13.39
2023-02-04T23:43:44.154Z,13.28
2023-02-04T23:46:11.489Z,13.19
2023-02-04T23:48:38.350Z,13.49
2023-02-04T23:51:06.214Z,13.71
2023-02-04T23:53:32.962Z,13.29
2023-02-04T23:55:59.869Z,13.66
2023-02-04T23:58:26.750Z,13.35
